sensor_id;sensor_type;location;lat;lon;timestamp;P1;durP1;ratioP1;P2;durP2;ratioP2
54557;SDS011;40452;50.080;20.040;2024-03-02T00:00:15;25.30;;;14.60;;
54557;SDS011;40452;50.080;20.040;2024-03-02T06:37:16;13.75;;;9.68;;
54557;SDS011;40452;50.080;20.040;2024-03-02T06:39:42;15.68;;;10.65;;
54557;SDS011;40452;50.080;20.040;2024-03-02T06:42:09;17.38;;;10.18;;
54557;SDS011;40452;50.080;20.040;2024-03-02T06:44:35;14.35;;;9.75;;
54557;SDS011;40452;50.080;20.040;2024-03-02T06:47:01;17.05;;;10.07;;
54557;SDS011;40452;50.080;20.040;2024-03-02T06:49:27;15.60;;;10.02;;
54557;SDS011;40452;50.080;20.040;2024-03-02T06:51:53;15.75;;;9.40;;
54557;SDS011;40452;50.080;20.040;2024-03-02T06:54:19;16.80;;;9.02;;
54557;SDS011;40452;50.080;20.040;2024-03-02T06:56:45;16.20;;;9.25;;
54557;SDS011;40452;50.080;20.040;2024-03-02T06:59:11;13.05;;;9.13;;
54557;SDS011;40452;50.080;20.040;2024-03-02T07:01:37;14.80;;;9.10;;
54557;SDS011;40452;50.080;20.040;2024-03-02T07:04:03;14.27;;;9.18;;
54557;SDS011;40452;50.080;20.040;2024-03-02T07:06:31;12.20;;;8.50;;
54557;SDS011;40452;50.080;20.040;2024-03-02T07:08:57;14.07;;;8.70;;
54557;SDS011;40452;50.080;20.040;2024-03-02T07:11:23;15.32;;;8.68;;
54557;SDS011;40452;50.080;20.040;2024-03-02T07:13:49;12.73;;;8.57;;
54557;SDS011;40452;50.080;20.040;2024-03-02T07:16:15;12.60;;;8.38;;
54557;SDS011;40452;50.080;20.040;2024-03-02T07:18:55;13.02;;;8.45;;
54557;SDS011;40452;50.080;20.040;2024-03-02T07:21:21;13.52;;;8.50;;
54557;SDS011;40452;50.080;20.040;2024-03-02T07:23:48;11.90;;;7.90;;
54557;SDS011;40452;50.080;20.040;2024-03-02T07:26:14;12.63;;;8.02;;
54557;SDS011;40452;50.080;20.040;2024-03-02T07:28:41;14.65;;;8.15;;
54557;SDS011;40452;50.080;20.040;2024-03-02T07:31:07;14.10;;;7.93;;
54557;SDS011;40452;50.080;20.040;2024-03-02T07:33:34;14.20;;;8.23;;
54557;SDS011;40452;50.080;20.040;2024-03-02T07:36:01;11.40;;;8.05;;
54557;SDS011;40452;50.080;20.040;2024-03-02T07:38:28;14.07;;;8.35;;
54557;SDS011;40452;50.080;20.040;2024-03-02T07:40:54;14.40;;;8.35;;
54557;SDS011;40452;50.080;20.040;2024-03-02T07:43:20;15.57;;;7.65;;
54557;SDS011;40452;50.080;20.040;2024-03-02T07:45:47;9.60;;;7.18;;
54557;SDS011;40452;50.080;20.040;2024-03-02T07:48:14;12.55;;;7.57;;
54557;SDS011;40452;50.080;20.040;2024-03-02T07:50:40;14.85;;;7.80;;
54557;SDS011;40452;50.080;20.040;2024-03-02T07:53:06;12.90;;;7.72;;
54557;SDS011;40452;50.080;20.040;2024-03-02T07:55:33;12.63;;;7.65;;
54557;SDS011;40452;50.080;20.040;2024-03-02T07:58:00;50.15;;;8.38;;
54557;SDS011;40452;50.080;20.040;2024-03-02T08:00:26;17.65;;;7.85;;
54557;SDS011;40452;50.080;20.040;2024-03-02T08:02:55;12.63;;;7.07;;
54557;SDS011;40452;50.080;20.040;2024-03-02T08:05:21;20.10;;;7.38;;
54557;SDS011;40452;50.080;20.040;2024-03-02T08:07:47;14.00;;;7.68;;
54557;SDS011;40452;50.080;20.040;2024-03-02T08:10:17;11.95;;;8.02;;
54557;SDS011;40452;50.080;20.040;2024-03-02T08:12:44;10.65;;;7.00;;
54557;SDS011;40452;50.080;20.040;2024-03-02T08:15:10;12.88;;;7.30;;
54557;SDS011;40452;50.080;20.040;2024-03-02T08:17:42;12.82;;;7.30;;
54557;SDS011;40452;50.080;20.040;2024-03-02T08:20:16;10.32;;;6.57;;
54557;SDS011;40452;50.080;20.040;2024-03-02T08:22:42;11.27;;;7.55;;
54557;SDS011;40452;50.080;20.040;2024-03-02T08:25:08;10.60;;;7.22;;
54557;SDS011;40452;50.080;20.040;2024-03-02T08:27:34;11.77;;;7.00;;
54557;SDS011;40452;50.080;20.040;2024-03-02T08:30:00;12.23;;;7.80;;
54557;SDS011;40452;50.080;20.040;2024-03-02T08:32:28;13.27;;;7.28;;
54557;SDS011;40452;50.080;20.040;2024-03-02T08:34:54;11.38;;;6.85;;
54557;SDS011;40452;50.080;20.040;2024-03-02T08:37:20;11.27;;;6.88;;
54557;SDS011;40452;50.080;20.040;2024-03-02T08:39:46;12.63;;;7.47;;
54557;SDS011;40452;50.080;20.040;2024-03-02T08:42:12;13.55;;;7.18;;
54557;SDS011;40452;50.080;20.040;2024-03-02T08:44:42;10.45;;;7.13;;
54557;SDS011;40452;50.080;20.040;2024-03-02T08:47:10;10.75;;;7.25;;
54557;SDS011;40452;50.080;20.040;2024-03-02T08:49:36;11.90;;;7.45;;
54557;SDS011;40452;50.080;20.040;2024-03-02T08:52:02;13.73;;;7.57;;
54557;SDS011;40452;50.080;20.040;2024-03-02T08:54:28;11.82;;;7.25;;
54557;SDS011;40452;50.080;20.040;2024-03-02T08:56:55;14.45;;;7.47;;
54557;SDS011;40452;50.080;20.040;2024-03-02T08:59:21;12.95;;;7.65;;
54557;SDS011;40452;50.080;20.040;2024-03-02T09:01:47;21.80;;;7.88;;
54557;SDS011;40452;50.080;20.040;2024-03-02T09:04:13;12.88;;;7.32;;
54557;SDS011;40452;50.080;20.040;2024-03-02T09:06:39;12.48;;;7.32;;
54557;SDS011;40452;50.080;20.040;2024-03-02T09:09:06;12.27;;;8.10;;
54557;SDS011;40452;50.080;20.040;2024-03-02T09:11:32;14.73;;;8.18;;
54557;SDS011;40452;50.080;20.040;2024-03-02T09:13:58;14.40;;;8.43;;
54557;SDS011;40452;50.080;20.040;2024-03-02T09:16:24;13.20;;;8.38;;
54557;SDS011;40452;50.080;20.040;2024-03-02T09:18:55;12.32;;;7.60;;
54557;SDS011;40452;50.080;20.040;2024-03-02T09:21:21;11.65;;;7.95;;
54557;SDS011;40452;50.080;20.040;2024-03-02T09:23:48;12.93;;;8.15;;
54557;SDS011;40452;50.080;20.040;2024-03-02T09:26:14;12.93;;;7.65;;
54557;SDS011;40452;50.080;20.040;2024-03-02T09:28:43;14.50;;;8.60;;
54557;SDS011;40452;50.080;20.040;2024-03-02T09:31:12;13.38;;;8.45;;
54557;SDS011;40452;50.080;20.040;2024-03-02T09:33:38;12.57;;;8.00;;
54557;SDS011;40452;50.080;20.040;2024-03-02T09:36:04;11.10;;;7.82;;
54557;SDS011;40452;50.080;20.040;2024-03-02T09:38:33;10.65;;;7.15;;
54557;SDS011;40452;50.080;20.040;2024-03-02T09:41:00;12.60;;;8.13;;
54557;SDS011;40452;50.080;20.040;2024-03-02T09:43:26;12.48;;;7.75;;
54557;SDS011;40452;50.080;20.040;2024-03-02T09:45:52;12.85;;;7.80;;
54557;SDS011;40452;50.080;20.040;2024-03-02T09:48:19;14.27;;;7.63;;
54557;SDS011;40452;50.080;20.040;2024-03-02T09:50:45;12.30;;;7.75;;
54557;SDS011;40452;50.080;20.040;2024-03-02T09:53:12;14.95;;;8.23;;
54557;SDS011;40452;50.080;20.040;2024-03-02T09:55:38;13.48;;;7.88;;
54557;SDS011;40452;50.080;20.040;2024-03-02T09:58:08;14.35;;;8.00;;
54557;SDS011;40452;50.080;20.040;2024-03-02T10:00:34;14.15;;;7.95;;
54557;SDS011;40452;50.080;20.040;2024-03-02T10:03:00;13.23;;;7.78;;
54557;SDS011;40452;50.080;20.040;2024-03-02T10:05:26;16.73;;;8.30;;
54557;SDS011;40452;50.080;20.040;2024-03-02T10:08:00;12.20;;;8.38;;
54557;SDS011;40452;50.080;20.040;2024-03-02T10:10:34;15.02;;;8.52;;
54557;SDS011;40452;50.080;20.040;2024-03-02T10:13:03;14.73;;;8.40;;
54557;SDS011;40452;50.080;20.040;2024-03-02T10:15:33;17.60;;;8.20;;
54557;SDS011;40452;50.080;20.040;2024-03-02T10:17:59;14.15;;;8.25;;
54557;SDS011;40452;50.080;20.040;2024-03-02T10:20:25;16.33;;;8.93;;
54557;SDS011;40452;50.080;20.040;2024-03-02T10:22:54;14.40;;;8.43;;
54557;SDS011;40452;50.080;20.040;2024-03-02T10:25:29;16.10;;;8.82;;
54557;SDS011;40452;50.080;20.040;2024-03-02T10:27:59;14.77;;;8.68;;
54557;SDS011;40452;50.080;20.040;2024-03-02T10:30:27;15.52;;;8.95;;
54557;SDS011;40452;50.080;20.040;2024-03-02T10:32:54;12.65;;;8.43;;
54557;SDS011;40452;50.080;20.040;2024-03-02T10:35:21;13.88;;;8.43;;
54557;SDS011;40452;50.080;20.040;2024-03-02T10:37:48;15.63;;;8.95;;
54557;SDS011;40452;50.080;20.040;2024-03-02T10:40:15;17.23;;;9.85;;
54557;SDS011;40452;50.080;20.040;2024-03-02T10:42:41;16.15;;;9.38;;
54557;SDS011;40452;50.080;20.040;2024-03-02T10:45:09;17.73;;;9.35;;
54557;SDS011;40452;50.080;20.040;2024-03-02T10:47:36;20.10;;;9.30;;
54557;SDS011;40452;50.080;20.040;2024-03-02T10:50:03;15.05;;;9.45;;
54557;SDS011;40452;50.080;20.040;2024-03-02T10:52:33;18.95;;;9.35;;
54557;SDS011;40452;50.080;20.040;2024-03-02T10:54:59;13.60;;;8.43;;
54557;SDS011;40452;50.080;20.040;2024-03-02T10:57:25;13.57;;;8.60;;
54557;SDS011;40452;50.080;20.040;2024-03-02T10:59:52;17.13;;;9.10;;
54557;SDS011;40452;50.080;20.040;2024-03-02T11:02:21;17.27;;;8.80;;
54557;SDS011;40452;50.080;20.040;2024-03-02T11:04:47;17.08;;;9.35;;
54557;SDS011;40452;50.080;20.040;2024-03-02T11:07:14;17.38;;;9.13;;
54557;SDS011;40452;50.080;20.040;2024-03-02T11:09:52;20.92;;;10.50;;
54557;SDS011;40452;50.080;20.040;2024-03-02T11:12:23;23.02;;;10.27;;
54557;SDS011;40452;50.080;20.040;2024-03-02T11:14:51;22.80;;;11.10;;
54557;SDS011;40452;50.080;20.040;2024-03-02T11:17:17;32.00;;;11.73;;
54557;SDS011;40452;50.080;20.040;2024-03-02T11:19:43;25.33;;;11.07;;
54557;SDS011;40452;50.080;20.040;2024-03-02T11:22:10;24.35;;;11.60;;
54557;SDS011;40452;50.080;20.040;2024-03-02T11:24:36;23.63;;;11.50;;
54557;SDS011;40452;50.080;20.040;2024-03-02T11:27:03;24.02;;;12.07;;
54557;SDS011;40452;50.080;20.040;2024-03-02T11:34:50;21.65;;;11.20;;
54557;SDS011;40452;50.080;20.040;2024-03-02T11:37:17;20.05;;;10.85;;
54557;SDS011;40452;50.080;20.040;2024-03-02T11:39:46;23.58;;;11.85;;
54557;SDS011;40452;50.080;20.040;2024-03-02T11:42:14;23.92;;;10.88;;
54557;SDS011;40452;50.080;20.040;2024-03-02T11:44:42;22.00;;;10.70;;
54557;SDS011;40452;50.080;20.040;2024-03-02T11:47:10;20.13;;;10.93;;
54557;SDS011;40452;50.080;20.040;2024-03-02T11:49:46;19.70;;;10.43;;
54557;SDS011;40452;50.080;20.040;2024-03-02T11:52:15;22.50;;;10.52;;
54557;SDS011;40452;50.080;20.040;2024-03-02T11:54:44;18.98;;;10.52;;
54557;SDS011;40452;50.080;20.040;2024-03-02T11:57:14;21.33;;;10.45;;
54557;SDS011;40452;50.080;20.040;2024-03-02T11:59:41;19.92;;;10.07;;
54557;SDS011;40452;50.080;20.040;2024-03-02T12:02:12;19.80;;;10.10;;
54557;SDS011;40452;50.080;20.040;2024-03-02T12:04:40;15.88;;;9.73;;
54557;SDS011;40452;50.080;20.040;2024-03-02T12:07:06;17.10;;;10.00;;
54557;SDS011;40452;50.080;20.040;2024-03-02T12:09:32;21.48;;;10.70;;
54557;SDS011;40452;50.080;20.040;2024-03-02T12:12:05;16.98;;;10.05;;
54557;SDS011;40452;50.080;20.040;2024-03-02T12:14:35;18.85;;;9.80;;
54557;SDS011;40452;50.080;20.040;2024-03-02T12:17:02;15.60;;;10.13;;
54557;SDS011;40452;50.080;20.040;2024-03-02T12:19:29;18.75;;;11.45;;
54557;SDS011;40452;50.080;20.040;2024-03-02T12:21:56;20.25;;;10.77;;
54557;SDS011;40452;50.080;20.040;2024-03-02T12:24:22;22.85;;;13.25;;
54557;SDS011;40452;50.080;20.040;2024-03-02T12:26:51;17.95;;;10.68;;
54557;SDS011;40452;50.080;20.040;2024-03-02T12:29:19;24.67;;;13.98;;
54557;SDS011;40452;50.080;20.040;2024-03-02T12:31:48;19.63;;;11.80;;
54557;SDS011;40452;50.080;20.040;2024-03-02T12:34:17;19.67;;;11.90;;
54557;SDS011;40452;50.080;20.040;2024-03-02T12:36:44;20.20;;;12.07;;
54557;SDS011;40452;50.080;20.040;2024-03-02T12:39:12;19.05;;;11.65;;
54557;SDS011;40452;50.080;20.040;2024-03-02T12:41:38;17.75;;;12.02;;
54557;SDS011;40452;50.080;20.040;2024-03-02T12:44:05;20.52;;;11.57;;
54557;SDS011;40452;50.080;20.040;2024-03-02T12:46:31;20.60;;;12.18;;
54557;SDS011;40452;50.080;20.040;2024-03-02T12:48:58;17.20;;;11.15;;
54557;SDS011;40452;50.080;20.040;2024-03-02T12:51:26;18.73;;;12.27;;
54557;SDS011;40452;50.080;20.040;2024-03-02T12:53:53;19.00;;;12.20;;
54557;SDS011;40452;50.080;20.040;2024-03-02T12:56:19;24.60;;;12.93;;
54557;SDS011;40452;50.080;20.040;2024-03-02T12:58:45;24.38;;;13.27;;
54557;SDS011;40452;50.080;20.040;2024-03-02T13:01:11;26.83;;;13.57;;
54557;SDS011;40452;50.080;20.040;2024-03-02T13:03:39;23.05;;;14.90;;
54557;SDS011;40452;50.080;20.040;2024-03-02T13:06:06;20.95;;;12.85;;
54557;SDS011;40452;50.080;20.040;2024-03-02T13:08:32;22.90;;;13.23;;
54557;SDS011;40452;50.080;20.040;2024-03-02T13:10:59;24.77;;;12.65;;
54557;SDS011;40452;50.080;20.040;2024-03-02T13:13:25;22.30;;;13.35;;
54557;SDS011;40452;50.080;20.040;2024-03-02T13:15:54;25.23;;;13.65;;
54557;SDS011;40452;50.080;20.040;2024-03-02T13:18:21;24.48;;;13.40;;
54557;SDS011;40452;50.080;20.040;2024-03-02T13:20:47;22.00;;;12.60;;
54557;SDS011;40452;50.080;20.040;2024-03-02T13:23:13;24.85;;;13.48;;
54557;SDS011;40452;50.080;20.040;2024-03-02T13:25:39;22.08;;;12.80;;
54557;SDS011;40452;50.080;20.040;2024-03-02T13:28:06;26.80;;;12.80;;
54557;SDS011;40452;50.080;20.040;2024-03-02T13:30:32;21.48;;;12.88;;
54557;SDS011;40452;50.080;20.040;2024-03-02T13:32:58;21.25;;;12.15;;
54557;SDS011;40452;50.080;20.040;2024-03-02T13:35:24;22.30;;;12.65;;
54557;SDS011;40452;50.080;20.040;2024-03-02T13:37:50;20.88;;;13.02;;
54557;SDS011;40452;50.080;20.040;2024-03-02T13:40:16;24.50;;;11.77;;
54557;SDS011;40452;50.080;20.040;2024-03-02T13:42:46;21.38;;;12.45;;
54557;SDS011;40452;50.080;20.040;2024-03-02T13:45:12;21.73;;;11.75;;
54557;SDS011;40452;50.080;20.040;2024-03-02T13:47:39;20.88;;;11.48;;
54557;SDS011;40452;50.080;20.040;2024-03-02T13:50:05;18.65;;;10.88;;
54557;SDS011;40452;50.080;20.040;2024-03-02T13:52:32;17.92;;;11.95;;
54557;SDS011;40452;50.080;20.040;2024-03-02T13:54:58;20.23;;;11.50;;
54557;SDS011;40452;50.080;20.040;2024-03-02T13:57:24;19.23;;;11.25;;
54557;SDS011;40452;50.080;20.040;2024-03-02T13:59:50;20.30;;;11.82;;
54557;SDS011;40452;50.080;20.040;2024-03-02T14:02:17;18.80;;;10.50;;
54557;SDS011;40452;50.080;20.040;2024-03-02T14:04:43;17.65;;;10.65;;
54557;SDS011;40452;50.080;20.040;2024-03-02T14:07:09;19.63;;;11.55;;
54557;SDS011;40452;50.080;20.040;2024-03-02T14:09:38;21.75;;;11.18;;
54557;SDS011;40452;50.080;20.040;2024-03-02T14:12:05;18.63;;;11.10;;
54557;SDS011;40452;50.080;20.040;2024-03-02T14:14:31;20.67;;;11.70;;
54557;SDS011;40452;50.080;20.040;2024-03-02T14:16:57;20.08;;;11.23;;
54557;SDS011;40452;50.080;20.040;2024-03-02T14:19:25;15.57;;;10.30;;
54557;SDS011;40452;50.080;20.040;2024-03-02T14:21:52;23.23;;;11.63;;
54557;SDS011;40452;50.080;20.040;2024-03-02T14:24:18;17.63;;;11.55;;
54557;SDS011;40452;50.080;20.040;2024-03-02T14:26:45;19.85;;;11.13;;
54557;SDS011;40452;50.080;20.040;2024-03-02T14:29:11;17.90;;;10.40;;
54557;SDS011;40452;50.080;20.040;2024-03-02T14:31:37;16.23;;;10.18;;
54557;SDS011;40452;50.080;20.040;2024-03-02T14:34:03;16.45;;;10.80;;
54557;SDS011;40452;50.080;20.040;2024-03-02T14:36:29;16.83;;;10.55;;
54557;SDS011;40452;50.080;20.040;2024-03-02T14:38:55;14.77;;;9.98;;
54557;SDS011;40452;50.080;20.040;2024-03-02T14:41:21;17.05;;;10.63;;
54557;SDS011;40452;50.080;20.040;2024-03-02T14:43:49;17.40;;;10.70;;
54557;SDS011;40452;50.080;20.040;2024-03-02T14:46:15;19.70;;;10.85;;
54557;SDS011;40452;50.080;20.040;2024-03-02T14:48:43;21.77;;;12.45;;
54557;SDS011;40452;50.080;20.040;2024-03-02T14:51:09;19.23;;;11.45;;
54557;SDS011;40452;50.080;20.040;2024-03-02T14:53:35;16.30;;;10.30;;
54557;SDS011;40452;50.080;20.040;2024-03-02T14:56:03;19.25;;;11.40;;
54557;SDS011;40452;50.080;20.040;2024-03-02T14:58:29;17.00;;;11.00;;
54557;SDS011;40452;50.080;20.040;2024-03-02T15:00:55;18.42;;;10.35;;
54557;SDS011;40452;50.080;20.040;2024-03-02T15:03:21;15.25;;;10.30;;
54557;SDS011;40452;50.080;20.040;2024-03-02T15:05:47;20.42;;;10.57;;
54557;SDS011;40452;50.080;20.040;2024-03-02T15:08:16;21.05;;;11.02;;
54557;SDS011;40452;50.080;20.040;2024-03-02T15:10:42;17.15;;;10.75;;
54557;SDS011;40452;50.080;20.040;2024-03-02T15:13:09;18.00;;;10.85;;
54557;SDS011;40452;50.080;20.040;2024-03-02T15:15:35;21.90;;;11.27;;
54557;SDS011;40452;50.080;20.040;2024-03-02T15:18:01;17.23;;;10.57;;
54557;SDS011;40452;50.080;20.040;2024-03-02T15:20:29;21.77;;;11.82;;
54557;SDS011;40452;50.080;20.040;2024-03-02T15:22:54;19.08;;;10.73;;
54557;SDS011;40452;50.080;20.040;2024-03-02T15:25:20;20.65;;;11.50;;
54557;SDS011;40452;50.080;20.040;2024-03-02T15:27:46;23.40;;;12.38;;
54557;SDS011;40452;50.080;20.040;2024-03-02T15:30:13;18.80;;;11.10;;
54557;SDS011;40452;50.080;20.040;2024-03-02T15:32:39;21.85;;;11.93;;
54557;SDS011;40452;50.080;20.040;2024-03-02T15:35:05;19.13;;;11.68;;
54557;SDS011;40452;50.080;20.040;2024-03-02T15:37:31;16.58;;;11.57;;
54557;SDS011;40452;50.080;20.040;2024-03-02T15:39:57;18.88;;;11.55;;
54557;SDS011;40452;50.080;20.040;2024-03-02T15:42:30;16.70;;;11.02;;
54557;SDS011;40452;50.080;20.040;2024-03-02T15:44:56;18.90;;;11.65;;
54557;SDS011;40452;50.080;20.040;2024-03-02T15:47:24;21.48;;;11.80;;
54557;SDS011;40452;50.080;20.040;2024-03-02T15:49:50;19.67;;;12.52;;
54557;SDS011;40452;50.080;20.040;2024-03-02T15:52:16;30.20;;;12.95;;
54557;SDS011;40452;50.080;20.040;2024-03-02T15:54:46;23.97;;;12.37;;
54557;SDS011;40452;50.080;20.040;2024-03-02T15:57:12;34.03;;;13.23;;
54557;SDS011;40452;50.080;20.040;2024-03-02T15:59:38;22.42;;;12.68;;
54557;SDS011;40452;50.080;20.040;2024-03-02T16:02:04;31.40;;;12.65;;
54557;SDS011;40452;50.080;20.040;2024-03-02T16:04:30;22.13;;;12.10;;
54557;SDS011;40452;50.080;20.040;2024-03-02T16:06:56;22.13;;;12.90;;
54557;SDS011;40452;50.080;20.040;2024-03-02T16:09:22;26.40;;;12.23;;
54557;SDS011;40452;50.080;20.040;2024-03-02T16:11:48;22.02;;;12.10;;
54557;SDS011;40452;50.080;20.040;2024-03-02T16:14:14;23.70;;;12.18;;
54557;SDS011;40452;50.080;20.040;2024-03-02T16:16:41;19.25;;;11.90;;
54557;SDS011;40452;50.080;20.040;2024-03-02T16:19:07;20.52;;;12.38;;
54557;SDS011;40452;50.080;20.040;2024-03-02T16:21:33;24.05;;;12.45;;
54557;SDS011;40452;50.080;20.040;2024-03-02T16:23:59;23.60;;;12.02;;
54557;SDS011;40452;50.080;20.040;2024-03-02T16:26:25;18.92;;;11.85;;
54557;SDS011;40452;50.080;20.040;2024-03-02T16:28:51;23.70;;;12.35;;
54557;SDS011;40452;50.080;20.040;2024-03-02T16:31:17;21.88;;;12.38;;
54557;SDS011;40452;50.080;20.040;2024-03-02T16:33:43;23.65;;;12.45;;
54557;SDS011;40452;50.080;20.040;2024-03-02T16:36:10;23.10;;;12.43;;
54557;SDS011;40452;50.080;20.040;2024-03-02T16:38:36;22.08;;;11.57;;
54557;SDS011;40452;50.080;20.040;2024-03-02T16:41:02;23.77;;;11.68;;
54557;SDS011;40452;50.080;20.040;2024-03-02T16:43:28;20.42;;;11.35;;
54557;SDS011;40452;50.080;20.040;2024-03-02T16:45:54;19.98;;;11.63;;
54557;SDS011;40452;50.080;20.040;2024-03-02T16:48:20;23.38;;;12.48;;
54557;SDS011;40452;50.080;20.040;2024-03-02T16:50:46;22.65;;;12.95;;
54557;SDS011;40452;50.080;20.040;2024-03-02T16:53:12;22.92;;;13.00;;
54557;SDS011;40452;50.080;20.040;2024-03-02T16:55:40;20.50;;;12.27;;
54557;SDS011;40452;50.080;20.040;2024-03-02T16:58:06;21.90;;;12.20;;
54557;SDS011;40452;50.080;20.040;2024-03-02T17:00:32;23.80;;;13.40;;
54557;SDS011;40452;50.080;20.040;2024-03-02T17:02:58;21.48;;;12.93;;
54557;SDS011;40452;50.080;20.040;2024-03-02T17:05:24;21.55;;;13.55;;
54557;SDS011;40452;50.080;20.040;2024-03-02T17:07:51;24.30;;;14.35;;
54557;SDS011;40452;50.080;20.040;2024-03-02T17:10:17;28.73;;;15.93;;
54557;SDS011;40452;50.080;20.040;2024-03-02T17:12:43;32.28;;;17.88;;
54557;SDS011;40452;50.080;20.040;2024-03-02T17:15:09;42.88;;;20.52;;
54557;SDS011;40452;50.080;20.040;2024-03-02T17:17:36;60.72;;;23.85;;
54557;SDS011;40452;50.080;20.040;2024-03-02T17:20:03;67.05;;;26.20;;
54557;SDS011;40452;50.080;20.040;2024-03-02T17:22:32;96.10;;;31.10;;
54557;SDS011;40452;50.080;20.040;2024-03-02T17:24:58;146.50;;;55.20;;
54557;SDS011;40452;50.080;20.040;2024-03-02T17:27:24;176.70;;;65.68;;
54557;SDS011;40452;50.080;20.040;2024-03-02T17:29:51;181.75;;;71.43;;
54557;SDS011;40452;50.080;20.040;2024-03-02T17:32:17;181.25;;;75.97;;
54557;SDS011;40452;50.080;20.040;2024-03-02T17:34:43;172.57;;;73.50;;
54557;SDS011;40452;50.080;20.040;2024-03-02T17:37:10;175.23;;;71.00;;
54557;SDS011;40452;50.080;20.040;2024-03-02T17:39:36;157.65;;;68.60;;
54557;SDS011;40452;50.080;20.040;2024-03-02T17:42:02;155.88;;;67.57;;
54557;SDS011;40452;50.080;20.040;2024-03-02T17:44:28;149.27;;;64.00;;
54557;SDS011;40452;50.080;20.040;2024-03-02T17:46:54;160.73;;;66.53;;
54557;SDS011;40452;50.080;20.040;2024-03-02T17:49:20;153.55;;;61.85;;
54557;SDS011;40452;50.080;20.040;2024-03-02T17:51:46;143.98;;;60.67;;
54557;SDS011;40452;50.080;20.040;2024-03-02T17:54:12;143.43;;;59.45;;
54557;SDS011;40452;50.080;20.040;2024-03-02T17:56:38;127.85;;;55.70;;
54557;SDS011;40452;50.080;20.040;2024-03-02T17:59:04;121.75;;;55.05;;
54557;SDS011;40452;50.080;20.040;2024-03-02T18:01:30;131.60;;;54.58;;
54557;SDS011;40452;50.080;20.040;2024-03-02T18:03:56;121.82;;;52.30;;
54557;SDS011;40452;50.080;20.040;2024-03-02T18:06:22;116.53;;;50.38;;
54557;SDS011;40452;50.080;20.040;2024-03-02T18:08:48;114.57;;;51.13;;
54557;SDS011;40452;50.080;20.040;2024-03-02T18:11:17;112.13;;;49.10;;
54557;SDS011;40452;50.080;20.040;2024-03-02T18:13:44;107.05;;;48.17;;
54557;SDS011;40452;50.080;20.040;2024-03-02T18:16:13;104.47;;;47.65;;
54557;SDS011;40452;50.080;20.040;2024-03-02T18:18:40;99.35;;;47.60;;
54557;SDS011;40452;50.080;20.040;2024-03-02T18:21:06;100.00;;;45.20;;
54557;SDS011;40452;50.080;20.040;2024-03-02T18:23:33;89.75;;;42.47;;
54557;SDS011;40452;50.080;20.040;2024-03-02T18:25:58;96.38;;;44.78;;
54557;SDS011;40452;50.080;20.040;2024-03-02T18:28:25;94.47;;;42.60;;
54557;SDS011;40452;50.080;20.040;2024-03-02T18:30:51;87.10;;;42.08;;
54557;SDS011;40452;50.080;20.040;2024-03-02T18:33:18;88.22;;;41.97;;
54557;SDS011;40452;50.080;20.040;2024-03-02T18:35:44;86.15;;;42.10;;
54557;SDS011;40452;50.080;20.040;2024-03-02T18:38:10;83.53;;;40.08;;
54557;SDS011;40452;50.080;20.040;2024-03-02T18:40:36;81.57;;;38.95;;
54557;SDS011;40452;50.080;20.040;2024-03-02T18:43:02;78.45;;;38.65;;
54557;SDS011;40452;50.080;20.040;2024-03-02T18:45:28;77.47;;;37.78;;
54557;SDS011;40452;50.080;20.040;2024-03-02T18:47:54;79.05;;;38.95;;
54557;SDS011;40452;50.080;20.040;2024-03-02T18:50:20;76.10;;;37.45;;
54557;SDS011;40452;50.080;20.040;2024-03-02T18:52:46;73.80;;;35.95;;
54557;SDS011;40452;50.080;20.040;2024-03-02T18:55:13;71.30;;;36.50;;
54557;SDS011;40452;50.080;20.040;2024-03-02T18:57:39;71.35;;;35.95;;
54557;SDS011;40452;50.080;20.040;2024-03-02T19:00:05;67.90;;;35.28;;
54557;SDS011;40452;50.080;20.040;2024-03-02T19:02:37;70.57;;;36.15;;
54557;SDS011;40452;50.080;20.040;2024-03-02T19:05:04;66.80;;;33.97;;
54557;SDS011;40452;50.080;20.040;2024-03-02T19:07:33;62.15;;;33.00;;
54557;SDS011;40452;50.080;20.040;2024-03-02T19:09:59;61.35;;;31.88;;
54557;SDS011;40452;50.080;20.040;2024-03-02T19:12:27;59.53;;;32.15;;
54557;SDS011;40452;50.080;20.040;2024-03-02T19:14:53;59.75;;;31.42;;
54557;SDS011;40452;50.080;20.040;2024-03-02T19:17:19;56.03;;;31.15;;
54557;SDS011;40452;50.080;20.040;2024-03-02T19:19:45;57.15;;;30.08;;
54557;SDS011;40452;50.080;20.040;2024-03-02T19:22:11;57.83;;;29.92;;
54557;SDS011;40452;50.080;20.040;2024-03-02T19:24:37;53.25;;;29.10;;
54557;SDS011;40452;50.080;20.040;2024-03-02T19:27:04;50.92;;;29.00;;
54557;SDS011;40452;50.080;20.040;2024-03-02T19:29:30;55.90;;;28.98;;
54557;SDS011;40452;50.080;20.040;2024-03-02T19:31:56;54.15;;;29.27;;
54557;SDS011;40452;50.080;20.040;2024-03-02T19:34:22;52.08;;;28.00;;
54557;SDS011;40452;50.080;20.040;2024-03-02T19:36:49;49.13;;;26.60;;
54557;SDS011;40452;50.080;20.040;2024-03-02T19:39:15;47.40;;;26.80;;
54557;SDS011;40452;50.080;20.040;2024-03-02T19:41:43;44.72;;;27.02;;
54557;SDS011;40452;50.080;20.040;2024-03-02T19:44:09;48.22;;;26.83;;
54557;SDS011;40452;50.080;20.040;2024-03-02T19:46:35;48.25;;;26.65;;
54557;SDS011;40452;50.080;20.040;2024-03-02T19:49:01;48.55;;;26.50;;
54557;SDS011;40452;50.080;20.040;2024-03-02T19:51:27;50.25;;;26.50;;
54557;SDS011;40452;50.080;20.040;2024-03-02T19:53:53;47.67;;;26.55;;
54557;SDS011;40452;50.080;20.040;2024-03-02T19:56:19;45.25;;;25.90;;
54557;SDS011;40452;50.080;20.040;2024-03-02T19:58:45;44.05;;;25.17;;
54557;SDS011;40452;50.080;20.040;2024-03-02T20:01:11;46.15;;;24.83;;
54557;SDS011;40452;50.080;20.040;2024-03-02T20:03:37;44.17;;;25.58;;
54557;SDS011;40452;50.080;20.040;2024-03-02T20:06:03;41.65;;;24.25;;
54557;SDS011;40452;50.080;20.040;2024-03-02T20:08:30;39.85;;;24.35;;
54557;SDS011;40452;50.080;20.040;2024-03-02T20:10:56;43.63;;;24.63;;
54557;SDS011;40452;50.080;20.040;2024-03-02T20:13:22;46.03;;;24.33;;
54557;SDS011;40452;50.080;20.040;2024-03-02T20:15:48;38.05;;;23.02;;
54557;SDS011;40452;50.080;20.040;2024-03-02T20:18:14;37.30;;;22.15;;
54557;SDS011;40452;50.080;20.040;2024-03-02T20:20:42;42.42;;;24.50;;
54557;SDS011;40452;50.080;20.040;2024-03-02T20:23:08;37.67;;;23.45;;
54557;SDS011;40452;50.080;20.040;2024-03-02T20:25:35;35.42;;;22.42;;
54557;SDS011;40452;50.080;20.040;2024-03-02T20:28:02;36.40;;;22.75;;
54557;SDS011;40452;50.080;20.040;2024-03-02T20:30:28;40.33;;;22.30;;
54557;SDS011;40452;50.080;20.040;2024-03-02T20:32:54;37.03;;;22.38;;
54557;SDS011;40452;50.080;20.040;2024-03-02T20:35:20;39.33;;;21.85;;
54557;SDS011;40452;50.080;20.040;2024-03-02T20:37:46;35.83;;;21.10;;
54557;SDS011;40452;50.080;20.040;2024-03-02T20:40:12;38.70;;;22.00;;
54557;SDS011;40452;50.080;20.040;2024-03-02T20:42:43;35.60;;;21.92;;
54557;SDS011;40452;50.080;20.040;2024-03-02T20:45:12;35.03;;;21.27;;
54557;SDS011;40452;50.080;20.040;2024-03-02T20:47:43;32.53;;;20.88;;